Terminal Aerodrome Forecast
Issued by NWS

Home | Current Version | Previous Version | Text Only | Print | Product List | Glossary On
Versions: 1 2 3 4 5 6 7 8 9 10 11 12 13 14 15
000
FTAK31 PAJN 280751 AAA
TAFAKT
TAF AMD
PAKT 280751Z 2808/2906 13010KT P6SM -SHRA SCT005 OVC012
      TEMPO 2808/2810 4SM -SHRA BR BKN007
     FM281000 32005KT 4SM -SHRA BR OVC015
     FM281800 VRB05KT P6SM VCSH BKN025 OVC050
      AMD LTD TO CLD VIS AND WIND 2808/2815=

USA.gov is the U.S. government's official web portal to all federal, state and local government web resources and services.